Time;durP1;ratioP1;P1;durP2;ratioP2;P2;SDS_P1;SDS_P2;PMS_P1;PMS_P2;Temp;Humidity;BMP_temperature;BMP_pressure;BME280_temperature;BME280_humidity;BME280_pressure;Samples;Min_cycle;Max_cycle;Signal;HPM_P1;HPM_P2
2023/04/21 00:01:21;;;;;;;25.40;21.27;;;9.40;99.90;;;;;;5060968;28;20064;-80
2023/04/21 00:03:46;;;;;;;24.52;20.77;;;9.20;99.90;;;;;;5084086;28;20474;-80
2023/04/21 00:06:12;;;;;;;24.67;20.52;;;9.30;99.90;;;;;;5054018;28;20523;-80
2023/04/21 00:08:40;;;;;;;30.10;22.77;;;9.30;99.90;;;;;;5039571;28;20071;-80
2023/04/21 00:11:07;;;;;;;31.70;22.02;;;9.30;99.90;;;;;;5045123;28;20093;-80
2023/04/21 00:13:33;;;;;;;35.22;23.55;;;9.40;99.90;;;;;;5054546;28;20409;-79
2023/04/21 00:15:59;;;;;;;33.97;23.23;;;9.20;99.90;;;;;;5051361;28;20055;-79
2023/04/21 00:18:26;;;;;;;27.67;21.02;;;9.20;99.90;;;;;;5071578;28;20040;-79
2023/04/21 00:20:52;;;;;;;28.30;22.30;;;9.20;99.90;;;;;;5047372;28;20078;-80
2023/04/21 00:23:17;;;;;;;28.67;21.02;;;9.10;99.90;;;;;;5059750;28;20482;-79
2023/04/21 00:25:43;;;;;;;32.42;22.00;;;9.10;99.90;;;;;;5071695;28;20036;-80
2023/04/21 00:28:08;;;;;;;29.58;22.17;;;9.20;99.90;;;;;;5041444;28;20062;-78
2023/04/21 00:30:34;;;;;;;28.30;22.08;;;9.10;99.90;;;;;;5057828;28;20036;-80
2023/04/21 00:33:00;;;;;;;27.38;20.13;;;9.00;99.90;;;;;;5069061;28;20032;-80
2023/04/21 00:35:25;;;;;;;25.50;19.75;;;9.00;99.90;;;;;;5069075;28;20036;-80
2023/04/21 00:37:51;;;;;;;27.77;20.85;;;9.00;99.90;;;;;;5072023;28;20044;-79
2023/04/21 00:40:16;;;;;;;27.40;21.58;;;8.90;99.90;;;;;;5077211;28;20094;-79
2023/04/21 00:42:42;;;;;;;25.83;20.90;;;9.00;99.90;;;;;;5070348;28;20040;-80
2023/04/21 00:45:08;;;;;;;28.38;21.17;;;8.80;99.90;;;;;;5052433;28;20043;-80
2023/04/21 00:47:34;;;;;;;26.90;20.92;;;9.00;99.90;;;;;;5059627;28;20039;-79
2023/04/21 00:50:01;;;;;;;27.73;20.27;;;8.90;99.90;;;;;;5086575;28;20036;-79
2023/04/21 00:52:28;;;;;;;27.40;19.77;;;8.80;99.90;;;;;;5048052;28;20504;-78
2023/04/21 00:54:54;;;;;;;27.95;19.38;;;8.80;99.90;;;;;;5060961;28;20465;-79
2023/04/21 00:57:20;;;;;;;23.80;19.38;;;8.80;99.90;;;;;;5054376;28;20420;-80
2023/04/21 00:59:46;;;;;;;26.25;19.73;;;8.80;99.90;;;;;;5060676;28;20032;-80
2023/04/21 01:02:14;;;;;;;25.45;18.52;;;8.80;99.90;;;;;;5042177;28;20537;-78
2023/04/21 01:04:40;;;;;;;28.55;18.60;;;8.80;99.90;;;;;;5057621;28;20117;-80
2023/04/21 01:07:06;;;;;;;25.60;19.55;;;8.70;99.90;;;;;;5044099;28;20090;-78
2023/04/21 01:09:33;;;;;;;23.42;17.98;;;8.70;99.90;;;;;;5051702;28;20032;-79
2023/04/21 01:12:08;;;;;;;22.48;18.52;;;8.70;99.90;;;;;;5057856;28;20119;-79
2023/04/21 01:14:35;;;;;;;25.90;18.33;;;8.80;99.90;;;;;;5062929;28;20051;-80
2023/04/21 01:17:02;;;;;;;22.60;18.10;;;8.80;99.90;;;;;;5056527;28;20036;-80
2023/04/21 01:19:31;;;;;;;28.33;19.25;;;8.80;99.90;;;;;;5064489;28;20048;-79
2023/04/21 01:21:59;;;;;;;24.38;18.48;;;8.80;99.90;;;;;;5057542;28;20059;-80
2023/04/21 01:24:38;;;;;;;22.80;17.73;;;8.90;99.90;;;;;;5040670;28;20082;-80
2023/04/21 01:27:13;;;;;;;22.63;17.40;;;8.90;99.90;;;;;;5062038;28;20037;-80
2023/04/21 01:29:41;;;;;;;24.70;17.98;;;8.90;99.90;;;;;;5045676;28;20078;-80
2023/04/21 01:32:10;;;;;;;22.38;16.52;;;8.90;99.90;;;;;;5067491;28;20039;-79
2023/04/21 01:34:36;;;;;;;22.95;18.10;;;8.80;99.90;;;;;;5059419;28;20052;-80
2023/04/21 01:37:01;;;;;;;21.52;16.90;;;8.80;99.90;;;;;;5057817;28;20166;-80
2023/04/21 01:39:27;;;;;;;22.98;18.15;;;8.90;99.90;;;;;;5046579;28;20076;-79
2023/04/21 01:41:56;;;;;;;23.08;16.77;;;8.90;99.90;;;;;;5056565;28;20040;-78
2023/04/21 01:44:23;;;;;;;20.92;17.30;;;8.90;99.90;;;;;;5059324;28;20407;-80
2023/04/21 01:46:49;;;;;;;23.08;16.77;;;9.00;99.90;;;;;;5055913;28;20044;-79
2023/04/21 01:49:14;;;;;;;19.98;17.38;;;8.90;99.90;;;;;;5070545;28;20098;-80
2023/04/21 01:51:40;;;;;;;20.80;16.92;;;8.90;99.90;;;;;;5056647;28;20550;-79
2023/04/21 01:54:05;;;;;;;21.27;17.40;;;8.90;99.90;;;;;;5066095;28;20047;-79
2023/04/21 01:56:31;;;;;;;20.65;16.33;;;8.90;99.90;;;;;;5068994;28;20040;-79
2023/04/21 01:58:56;;;;;;;20.40;17.70;;;9.00;99.90;;;;;;5062397;28;20165;-79
2023/04/21 02:01:22;;;;;;;21.52;16.23;;;8.90;99.90;;;;;;5060040;28;20041;-80
2023/04/21 02:03:48;;;;;;;21.35;17.40;;;9.00;99.90;;;;;;5062167;28;20495;-80
2023/04/21 02:06:13;;;;;;;21.48;16.88;;;9.00;99.90;;;;;;5054768;28;20036;-78
2023/04/21 02:08:39;;;;;;;20.85;16.85;;;9.10;99.90;;;;;;5048771;28;20040;-80
2023/04/21 02:11:05;;;;;;;19.17;16.40;;;9.00;99.90;;;;;;5087962;28;20082;-80
2023/04/21 02:13:30;;;;;;;22.98;16.23;;;9.00;99.90;;;;;;5077609;28;20058;-81
2023/04/21 02:15:56;;;;;;;19.20;15.85;;;9.00;99.90;;;;;;5038558;28;20531;-80
2023/04/21 02:18:21;;;;;;;21.33;15.70;;;9.10;99.90;;;;;;5043200;28;20049;-79
2023/04/21 02:20:47;;;;;;;19.55;14.88;;;9.00;99.90;;;;;;5039626;28;20052;-81
2023/04/21 02:23:13;;;;;;;19.92;15.95;;;8.90;99.90;;;;;;5066825;28;20123;-81
2023/04/21 02:25:38;;;;;;;18.92;16.00;;;9.00;99.90;;;;;;5064558;28;20068;-81
2023/04/21 02:28:04;;;;;;;21.48;15.65;;;8.90;99.90;;;;;;5053440;28;20488;-79
2023/04/21 02:30:29;;;;;;;20.33;15.23;;;9.10;99.90;;;;;;5061453;28;20399;-81
2023/04/21 02:32:55;;;;;;;20.25;15.23;;;8.90;99.90;;;;;;5065129;28;20036;-81
2023/04/21 02:35:21;;;;;;;20.35;15.77;;;8.90;99.90;;;;;;5069277;28;20082;-80
2023/04/21 02:37:46;;;;;;;22.45;16.33;;;9.00;99.90;;;;;;5063623;28;20492;-80
2023/04/21 02:40:12;;;;;;;21.90;15.68;;;9.10;99.90;;;;;;5064521;28;20492;-81
2023/04/21 02:42:37;;;;;;;17.33;14.85;;;9.00;99.90;;;;;;5048856;28;20205;-80
2023/04/21 02:45:03;;;;;;;21.58;15.70;;;8.90;99.90;;;;;;5070623;28;20087;-81
2023/04/21 02:47:29;;;;;;;20.08;15.25;;;9.00;99.90;;;;;;5064878;28;20074;-80
2023/04/21 02:49:54;;;;;;;19.77;15.07;;;9.00;99.90;;;;;;5056507;28;20070;-80
2023/04/21 02:52:20;;;;;;;19.77;14.85;;;9.00;99.90;;;;;;5061339;28;20392;-81
2023/04/21 02:54:45;;;;;;;20.30;14.55;;;9.00;99.90;;;;;;5056948;28;20041;-80
2023/04/21 02:57:11;;;;;;;21.65;14.93;;;9.00;99.90;;;;;;5058606;28;20129;-81
2023/04/21 02:59:36;;;;;;;17.90;14.70;;;9.00;99.90;;;;;;5046328;28;20104;-80
2023/04/21 03:02:02;;;;;;;20.10;14.10;;;9.00;99.90;;;;;;5057472;28;20058;-80
2023/04/21 03:04:28;;;;;;;16.30;14.23;;;9.10;99.90;;;;;;5069414;28;20123;-81
2023/04/21 03:06:54;;;;;;;20.10;14.55;;;9.00;99.90;;;;;;5068176;28;20502;-80
2023/04/21 03:09:20;;;;;;;17.77;14.30;;;9.00;99.90;;;;;;5073918;28;20032;-81
2023/04/21 03:11:45;;;;;;;18.83;14.38;;;9.10;99.90;;;;;;5089692;28;20047;-80
2023/04/21 03:14:11;;;;;;;22.25;14.93;;;9.10;99.90;;;;;;5066934;28;20480;-80
2023/04/21 03:16:36;;;;;;;20.27;13.93;;;9.10;99.90;;;;;;5064774;28;20043;-81
2023/04/21 03:19:02;;;;;;;19.05;14.00;;;9.10;99.90;;;;;;5037321;28;20044;-81
2023/04/21 03:21:28;;;;;;;19.65;13.90;;;9.20;99.90;;;;;;5069551;28;20058;-80
2023/04/21 03:23:53;;;;;;;18.05;13.82;;;9.20;99.90;;;;;;5055133;28;20094;-79
2023/04/21 03:26:19;;;;;;;17.70;13.95;;;9.10;99.90;;;;;;5048168;28;20046;-81
2023/04/21 03:28:45;;;;;;;19.27;14.35;;;9.20;99.90;;;;;;5064391;28;20036;-81
2023/04/21 03:31:10;;;;;;;18.15;14.45;;;9.20;99.90;;;;;;5055689;28;20043;-81
2023/04/21 03:33:36;;;;;;;17.58;14.02;;;9.20;99.90;;;;;;5047258;28;20059;-80
2023/04/21 03:36:01;;;;;;;19.02;14.20;;;9.10;99.90;;;;;;5059696;28;20036;-79
2023/04/21 03:38:30;;;;;;;21.13;15.23;;;9.20;99.90;;;;;;5060737;28;20389;-80
2023/04/21 03:40:56;;;;;;;17.80;13.20;;;9.20;99.90;;;;;;5062106;28;20040;-80
2023/04/21 03:43:21;;;;;;;18.45;13.95;;;9.20;99.90;;;;;;5058549;28;20523;-81
2023/04/21 03:45:47;;;;;;;19.35;14.23;;;9.20;99.90;;;;;;5062994;28;20425;-80
2023/04/21 03:48:12;;;;;;;16.20;12.68;;;9.20;99.90;;;;;;5059363;28;20036;-81
2023/04/21 03:50:38;;;;;;;18.73;12.90;;;9.30;99.90;;;;;;5045947;28;20032;-79
2023/04/21 03:53:03;;;;;;;19.45;14.20;;;9.20;99.90;;;;;;5062070;28;20032;-81
2023/04/21 03:55:29;;;;;;;16.15;13.93;;;9.20;99.90;;;;;;5062940;28;20472;-81
2023/04/21 03:57:54;;;;;;;18.35;14.02;;;9.30;99.90;;;;;;5053899;28;20484;-80
2023/04/21 04:00:20;;;;;;;19.75;13.07;;;9.30;99.90;;;;;;5059414;28;20082;-80
2023/04/21 04:02:46;;;;;;;18.00;14.02;;;9.30;99.90;;;;;;5071742;28;20055;-81
2023/04/21 04:05:11;;;;;;;17.13;13.38;;;9.30;99.90;;;;;;5066879;28;20385;-80
2023/04/21 04:07:37;;;;;;;20.60;13.65;;;9.20;99.90;;;;;;5052051;28;20484;-80
2023/04/21 04:10:03;;;;;;;18.77;13.90;;;9.20;99.90;;;;;;5059297;28;20075;-80
2023/04/21 04:12:29;;;;;;;19.08;13.68;;;9.20;99.90;;;;;;5037361;28;20071;-81
2023/04/21 04:14:55;;;;;;;18.95;14.02;;;9.20;99.90;;;;;;5054092;28;20028;-79
2023/04/21 04:17:21;;;;;;;18.98;13.23;;;9.10;99.90;;;;;;5067233;28;20093;-80
2023/04/21 04:19:46;;;;;;;18.73;13.55;;;9.20;99.90;;;;;;5061376;28;20072;-80
2023/04/21 04:22:12;;;;;;;16.17;12.73;;;9.10;99.90;;;;;;5058151;28;20228;-80
2023/04/21 04:24:37;;;;;;;17.25;13.43;;;9.20;99.90;;;;;;5063346;28;20063;-81
2023/04/21 04:27:04;;;;;;;17.38;13.82;;;9.10;99.90;;;;;;5072909;28;20039;-80
2023/04/21 04:29:31;;;;;;;16.83;13.50;;;9.20;99.90;;;;;;5050319;28;20039;-80
2023/04/21 04:31:57;;;;;;;17.17;13.57;;;9.00;99.90;;;;;;5053904;28;20037;-80
2023/04/21 04:34:23;;;;;;;20.48;14.25;;;8.90;99.90;;;;;;5052562;28;20037;-80
2023/04/21 04:36:49;;;;;;;18.88;13.80;;;9.00;99.90;;;;;;5052424;28;20126;-80
2023/04/21 04:39:15;;;;;;;15.93;13.77;;;8.90;99.90;;;;;;5043772;28;20519;-79
2023/04/21 04:41:41;;;;;;;16.95;13.43;;;8.90;99.90;;;;;;5059859;28;20046;-78
2023/04/21 04:44:07;;;;;;;17.38;13.98;;;8.90;99.90;;;;;;5048324;28;20040;-79
2023/04/21 04:46:34;;;;;;;17.27;13.68;;;8.90;99.90;;;;;;5048355;28;20033;-80
2023/04/21 04:49:00;;;;;;;16.52;14.02;;;8.90;99.90;;;;;;5043609;28;20063;-80
2023/04/21 04:51:26;;;;;;;20.23;13.55;;;8.70;99.90;;;;;;5060026;28;20040;-80
2023/04/21 04:53:52;;;;;;;17.70;13.43;;;8.80;99.90;;;;;;5063938;28;20126;-80
2023/04/21 04:56:17;;;;;;;18.25;13.55;;;8.80;99.90;;;;;;5050248;28;20484;-80
2023/04/21 04:58:45;;;;;;;18.67;13.35;;;8.80;99.90;;;;;;5046829;28;20063;-80
2023/04/21 05:01:15;;;;;;;20.02;14.23;;;8.90;99.90;;;;;;5065093;28;20040;-80
2023/04/21 05:03:41;;;;;;;19.77;14.23;;;9.30;99.90;;;;;;5062201;28;20091;-79
2023/04/21 05:06:07;;;;;;;18.08;13.65;;;8.80;99.90;;;;;;5050686;28;20072;-80
2023/04/21 05:08:33;;;;;;;17.10;13.75;;;8.80;99.90;;;;;;5054508;28;20028;-80
2023/04/21 05:10:58;;;;;;;17.98;14.27;;;8.80;99.90;;;;;;5063490;28;20048;-80
2023/04/21 05:13:24;;;;;;;16.52;14.27;;;8.90;99.90;;;;;;5063167;28;20090;-79
2023/04/21 05:15:56;;;;;;;15.23;13.50;;;8.80;99.90;;;;;;5068339;28;20077;-80
2023/04/21 05:18:22;;;;;;;19.48;13.98;;;8.90;99.90;;;;;;5063123;28;20036;-80
2023/04/21 05:20:47;;;;;;;17.30;14.35;;;8.90;99.90;;;;;;5046739;28;20621;-80
2023/04/21 05:23:13;;;;;;;19.00;14.02;;;8.80;99.90;;;;;;5049665;28;20048;-80
2023/04/21 05:25:39;;;;;;;15.75;13.95;;;9.00;99.90;;;;;;5062555;28;20098;-78
2023/04/21 05:28:04;;;;;;;18.42;14.10;;;9.00;99.90;;;;;;5066191;28;20067;-79
2023/04/21 05:30:30;;;;;;;17.55;13.15;;;9.00;99.90;;;;;;5063250;28;20040;-80
2023/04/21 05:32:56;;;;;;;18.30;14.70;;;9.00;99.90;;;;;;5061664;28;20040;-80
2023/04/21 05:35:21;;;;;;;14.95;12.55;;;9.10;99.90;;;;;;5048784;28;20055;-80
2023/04/21 05:37:47;;;;;;;15.95;13.70;;;9.20;99.90;;;;;;5069010;28;20122;-79
2023/04/21 05:40:13;;;;;;;15.65;13.55;;;9.10;99.90;;;;;;5055392;28;20140;-81
2023/04/21 05:42:38;;;;;;;18.48;12.57;;;9.30;99.90;;;;;;5069826;28;20044;-80
2023/04/21 05:45:04;;;;;;;16.98;12.85;;;9.10;99.90;;;;;;5048439;28;20059;-79
2023/04/21 05:47:30;;;;;;;19.75;13.63;;;9.40;99.90;;;;;;5059880;28;20520;-80
2023/04/21 05:49:55;;;;;;;14.98;12.23;;;9.30;99.90;;;;;;5057155;28;20033;-77
2023/04/21 05:52:21;;;;;;;16.45;12.07;;;9.30;99.90;;;;;;5084885;28;20450;-78
2023/04/21 05:54:47;;;;;;;16.05;12.98;;;9.40;99.90;;;;;;5040243;28;20496;-83
2023/04/21 05:57:12;;;;;;;14.70;12.40;;;9.50;99.90;;;;;;5063498;28;20541;-80
2023/04/21 05:59:38;;;;;;;16.67;13.15;;;9.60;99.90;;;;;;5054134;28;20037;-80
2023/04/21 06:02:04;;;;;;;15.50;13.45;;;9.50;99.90;;;;;;5063258;28;20122;-82
2023/04/21 06:04:29;;;;;;;15.90;12.40;;;9.60;99.90;;;;;;5041460;28;20040;-78
2023/04/21 06:06:55;;;;;;;16.27;12.80;;;9.70;99.90;;;;;;5057460;28;20500;-80
2023/04/21 06:09:21;;;;;;;16.83;12.90;;;9.70;99.90;;;;;;5061915;28;20400;-79
2023/04/21 06:11:46;;;;;;;16.55;12.60;;;9.90;99.90;;;;;;5056911;28;20086;-78
2023/04/21 06:14:12;;;;;;;17.38;12.35;;;9.90;99.90;;;;;;5055979;28;20040;-79
2023/04/21 06:16:37;;;;;;;16.63;12.52;;;10.00;99.90;;;;;;5050670;28;20036;-79
2023/04/21 06:19:03;;;;;;;18.23;12.05;;;10.00;99.90;;;;;;5057771;28;20032;-80
2023/04/21 06:21:28;;;;;;;13.13;11.10;;;10.10;99.90;;;;;;5066957;28;20039;-83
2023/04/21 06:23:54;;;;;;;15.85;11.70;;;10.10;99.90;;;;;;5057142;28;20119;-81
2023/04/21 06:26:20;;;;;;;13.38;11.43;;;10.30;99.90;;;;;;5066483;28;20033;-76
2023/04/21 06:28:46;;;;;;;16.23;11.43;;;10.50;99.90;;;;;;5056212;28;20032;-80
2023/04/21 06:31:14;;;;;;;14.52;11.85;;;10.50;99.90;;;;;;5056186;28;20036;-79
2023/04/21 06:33:40;;;;;;;18.55;11.30;;;10.60;99.90;;;;;;5067295;28;20082;-79
2023/04/21 06:36:06;;;;;;;13.93;11.77;;;10.90;99.90;;;;;;5045364;28;20033;-80
2023/04/21 06:38:31;;;;;;;13.52;11.35;;;10.90;99.90;;;;;;5049456;28;20080;-80
2023/04/21 06:40:57;;;;;;;16.85;11.48;;;10.50;99.90;;;;;;5057966;28;20115;-80
2023/04/21 06:43:22;;;;;;;15.43;11.60;;;11.00;99.90;;;;;;5051982;28;20043;-78
2023/04/21 06:45:48;;;;;;;15.65;11.55;;;11.10;99.90;;;;;;5054310;28;20040;-79
2023/04/21 06:48:14;;;;;;;12.07;10.88;;;11.20;99.90;;;;;;5056737;28;20123;-80
2023/04/21 06:50:39;;;;;;;13.85;10.73;;;11.30;99.90;;;;;;5061370;28;20066;-80
2023/04/21 06:53:05;;;;;;;16.58;11.60;;;11.40;99.90;;;;;;5055238;28;20032;-79
2023/04/21 06:55:31;;;;;;;16.35;11.43;;;11.60;99.90;;;;;;5061364;28;20109;-78
2023/04/21 06:57:56;;;;;;;15.10;11.32;;;11.50;99.90;;;;;;5064351;28;20043;-80
2023/04/21 07:00:22;;;;;;;14.77;11.00;;;11.70;99.90;;;;;;5059165;28;20492;-80
2023/04/21 07:02:48;;;;;;;15.80;11.30;;;11.70;99.90;;;;;;5065248;28;20082;-80
2023/04/21 07:05:13;;;;;;;14.70;11.18;;;11.90;99.90;;;;;;5062465;28;20119;-79
2023/04/21 07:07:39;;;;;;;13.50;11.00;;;11.80;99.90;;;;;;5059791;28;20070;-78
2023/04/21 07:10:06;;;;;;;15.30;10.88;;;11.80;99.90;;;;;;5039853;28;20400;-79
2023/04/21 07:12:31;;;;;;;16.35;11.75;;;12.00;99.90;;;;;;5069734;28;20124;-78
2023/04/21 07:14:57;;;;;;;14.88;11.10;;;11.90;99.90;;;;;;5062262;28;20524;-80
2023/04/21 07:17:22;;;;;;;15.20;11.70;;;12.00;99.90;;;;;;5063770;28;20040;-80
2023/04/21 07:19:48;;;;;;;14.55;10.57;;;12.00;99.90;;;;;;5069633;28;20041;-79
2023/04/21 07:22:13;;;;;;;17.83;11.65;;;11.90;99.90;;;;;;5057701;28;20519;-79
2023/04/21 07:24:39;;;;;;;13.20;10.85;;;11.80;99.90;;;;;;5062069;28;20648;-80
2023/04/21 07:27:04;;;;;;;13.55;11.60;;;12.10;99.90;;;;;;5060962;28;20040;-80
2023/04/21 07:29:30;;;;;;;15.00;11.13;;;12.00;99.90;;;;;;5062995;28;20090;-79
2023/04/21 07:31:57;;;;;;;13.20;11.57;;;12.00;99.90;;;;;;5042399;28;20038;-80
2023/04/21 07:34:23;;;;;;;15.25;11.00;;;12.40;99.90;;;;;;5066281;28;20051;-80
2023/04/21 07:36:50;;;;;;;15.00;11.07;;;12.20;99.90;;;;;;5062908;28;20122;-80
2023/04/21 07:39:16;;;;;;;14.02;11.38;;;12.30;99.90;;;;;;5065020;28;20098;-79
2023/04/21 07:41:42;;;;;;;14.23;11.38;;;12.30;99.90;;;;;;5062165;28;20032;-78
2023/04/21 07:44:07;;;;;;;16.77;10.88;;;12.70;99.90;;;;;;5064015;28;20109;-80
2023/04/21 07:46:33;;;;;;;15.05;10.90;;;12.80;99.90;;;;;;5048860;28;20037;-79
2023/04/21 07:48:59;;;;;;;14.60;11.20;;;12.90;99.90;;;;;;5062395;28;20051;-80
2023/04/21 07:51:26;;;;;;;16.42;11.80;;;13.20;99.90;;;;;;5048296;28;20056;-79
2023/04/21 07:53:52;;;;;;;13.57;10.98;;;13.20;99.90;;;;;;5060375;28;20046;-80
2023/04/21 07:56:18;;;;;;;14.48;10.90;;;13.10;99.90;;;;;;5057843;28;20704;-79
2023/04/21 07:58:44;;;;;;;12.25;10.95;;;13.20;99.90;;;;;;5067777;28;20554;-79
2023/04/21 08:01:09;;;;;;;16.77;11.35;;;13.60;99.90;;;;;;5062890;28;20075;-79
2023/04/21 08:03:35;;;;;;;15.05;11.07;;;13.30;99.90;;;;;;5047489;28;20501;-78
2023/04/21 08:06:01;;;;;;;13.38;11.18;;;13.60;99.90;;;;;;5073944;28;20100;-80
2023/04/21 08:08:27;;;;;;;12.63;10.73;;;13.60;99.90;;;;;;5068428;28;20040;-80
2023/04/21 08:10:53;;;;;;;15.63;10.55;;;13.50;99.90;;;;;;5068458;28;20032;-80
2023/04/21 08:13:20;;;;;;;13.77;10.60;;;13.70;99.90;;;;;;5060081;28;20051;-79
2023/04/21 08:15:45;;;;;;;15.45;11.07;;;14.00;99.90;;;;;;5063638;28;20055;-79
2023/04/21 08:18:11;;;;;;;17.70;11.80;;;13.90;99.90;;;;;;5072051;28;20044;-78
2023/04/21 08:20:37;;;;;;;16.98;10.82;;;13.90;99.90;;;;;;5069870;28;20055;-79
2023/04/21 08:23:02;;;;;;;14.70;10.80;;;14.10;99.90;;;;;;5064981;28;20040;-80
2023/04/21 08:25:28;;;;;;;17.20;11.00;;;14.50;99.90;;;;;;5061963;28;20048;-80
2023/04/21 08:27:53;;;;;;;14.52;10.38;;;14.50;99.90;;;;;;5063761;28;20032;-78
2023/04/21 08:30:19;;;;;;;12.65;10.25;;;14.60;99.90;;;;;;5065682;28;20039;-80
2023/04/21 08:32:44;;;;;;;16.10;11.75;;;14.60;99.90;;;;;;5051124;28;20523;-80
2023/04/21 08:35:10;;;;;;;15.85;11.07;;;14.90;99.90;;;;;;5056169;28;20135;-80
2023/04/21 08:37:37;;;;;;;12.48;10.65;;;15.00;99.90;;;;;;5061102;28;20119;-80
2023/04/21 08:40:04;;;;;;;13.25;10.65;;;15.10;99.90;;;;;;5059004;28;20571;-80
2023/04/21 08:42:31;;;;;;;15.68;11.13;;;15.10;99.90;;;;;;5075555;28;20555;-80
2023/04/21 08:44:56;;;;;;;12.25;10.55;;;15.40;99.90;;;;;;5051393;28;20051;-79
2023/04/21 08:47:23;;;;;;;17.88;11.55;;;15.20;99.90;;;;;;5072451;28;20036;-79
2023/04/21 08:49:50;;;;;;;18.20;12.05;;;15.60;99.90;;;;;;5052043;28;20051;-80
2023/04/21 08:52:17;;;;;;;14.82;10.52;;;16.10;99.90;;;;;;5064107;28;20089;-78
2023/04/21 08:54:42;;;;;;;14.48;11.50;;;17.20;99.90;;;;;;5062495;28;20094;-79
2023/04/21 08:57:08;;;;;;;16.38;11.25;;;17.70;99.90;;;;;;5067010;28;20044;-78
2023/04/21 08:59:34;;;;;;;15.07;10.95;;;17.40;99.90;;;;;;5065382;28;20048;-79
2023/04/21 09:02:17;;;;;;;16.08;10.75;;;17.30;99.90;;;;;;5047093;28;20082;-78
2023/04/21 09:04:51;;;;;;;13.75;11.20;;;17.20;99.90;;;;;;5043350;28;20120;-78
2023/04/21 09:07:31;;;;;;;;;;;17.30;99.90;;;;;;5062713;28;20037;-78
2023/04/21 09:09:57;;;;;;;13.02;10.68;;;17.20;99.90;;;;;;5066047;28;19916;-78
2023/04/21 09:12:23;;;;;;;13.02;10.32;;;17.10;99.90;;;;;;5072708;28;20067;-78
2023/04/21 09:14:49;;;;;;;15.68;10.70;;;17.00;99.90;;;;;;5068187;28;20078;-78
2023/04/21 09:17:16;;;;;;;12.10;10.73;;;17.10;99.90;;;;;;5068896;28;20044;-78
2023/04/21 09:19:42;;;;;;;11.85;10.02;;;17.00;99.90;;;;;;5062419;28;20453;-79
2023/04/21 09:22:08;;;;;;;13.80;10.85;;;17.20;99.90;;;;;;5062838;28;20051;-79
2023/04/21 09:24:33;;;;;;;12.65;10.20;;;17.40;99.90;;;;;;5070211;28;20032;-78
2023/04/21 09:27:02;;;;;;;15.27;10.57;;;17.10;99.90;;;;;;5063397;28;20082;-79
2023/04/21 09:29:28;;;;;;;15.65;10.95;;;17.50;99.90;;;;;;5071608;28;20032;-79
2023/04/21 09:31:53;;;;;;;15.93;11.70;;;17.60;99.90;;;;;;5045602;28;20028;-79
2023/04/21 09:34:24;;;;;;;19.60;11.50;;;18.30;99.90;;;;;;5065250;28;20055;-78
2023/04/21 09:37:01;;;;;;;15.80;11.68;;;18.40;99.90;;;;;;5079200;28;20119;-81
2023/04/21 09:39:29;;;;;;;14.70;10.95;;;18.80;99.90;;;;;;5065281;28;20055;-80
2023/04/21 09:41:56;;;;;;;14.27;10.65;;;19.10;99.90;;;;;;5067719;28;20084;-80
2023/04/21 09:44:22;;;;;;;15.68;11.55;;;19.50;99.90;;;;;;5048504;28;20106;-78
2023/04/21 09:46:49;;;;;;;14.43;11.27;;;19.30;99.90;;;;;;5058581;28;20484;-83
2023/04/21 09:49:17;;;;;;;15.30;11.82;;;19.40;99.90;;;;;;5090407;28;20033;-80
2023/04/21 09:51:43;;;;;;;14.13;11.52;;;19.90;99.90;;;;;;5056741;28;20032;-80
2023/04/21 09:54:15;;;;;;;13.70;11.00;;;19.40;99.90;;;;;;5073290;28;20059;-79
2023/04/21 09:56:42;;;;;;;16.02;11.40;;;19.30;99.90;;;;;;5054920;28;20039;-78
2023/04/21 09:59:15;;;;;;;13.57;10.90;;;19.00;99.90;;;;;;5051800;28;20048;-79
2023/04/21 10:01:42;;;;;;;17.23;10.98;;;19.40;99.90;;;;;;5047196;28;20068;-80
2023/04/21 10:04:08;;;;;;;13.38;10.70;;;19.60;99.90;;;;;;5058424;28;20091;-80
2023/04/21 10:06:35;;;;;;;12.43;11.13;;;20.00;99.90;;;;;;5063670;28;20459;-78
2023/04/21 10:09:03;;;;;;;13.48;11.10;;;20.20;99.90;;;;;;5065253;28;20119;-79
2023/04/21 10:11:28;;;;;;;14.05;10.40;;;20.30;99.90;;;;;;5066620;28;20048;-78
2023/04/21 10:13:54;;;;;;;14.55;10.70;;;20.50;99.90;;;;;;5062327;28;20534;-80
2023/04/21 10:16:22;;;;;;;14.50;10.90;;;21.20;99.90;;;;;;5062224;28;20044;-80
2023/04/21 10:18:47;;;;;;;14.52;10.43;;;20.90;99.90;;;;;;5070423;28;20039;-79
2023/04/21 10:21:20;;;;;;;15.90;11.68;;;20.40;98.50;;;;;;5080541;28;20047;-79
2023/04/21 10:23:47;;;;;;;;;;;20.10;91.90;;;;;;5065046;28;20150;-79
2023/04/21 10:26:17;;;;;;;16.85;11.75;;;20.50;99.30;;;;;;5065874;28;19931;-79
2023/04/21 10:28:51;;;;;;;12.38;10.75;;;20.00;98.70;;;;;;5070086;28;20032;-80
2023/04/21 10:31:33;;;;;;;13.77;11.07;;;20.50;94.00;;;;;;5083401;28;20527;-79
2023/04/21 10:34:05;;;;;;;13.18;11.10;;;20.40;88.10;;;;;;5052058;28;20047;-78
2023/04/21 10:36:30;;;;;;;13.70;10.95;;;20.80;87.90;;;;;;5074889;28;20055;-80
2023/04/21 10:39:02;;;;;;;15.93;12.40;;;20.50;88.50;;;;;;5085386;28;20504;-81
2023/04/21 10:41:29;;;;;;;13.77;12.38;;;20.70;77.80;;;;;;5067359;28;20042;-80
2023/04/21 10:44:00;;;;;;;12.80;11.25;;;20.20;80.30;;;;;;5078940;28;20513;-80
2023/04/21 10:46:49;;;;;;;13.65;11.07;;;20.10;76.40;;;;;;5054978;28;20428;-80
2023/04/21 10:49:20;;;;;;;18.40;11.95;;;19.80;81.30;;;;;;5064362;28;20032;-79
2023/04/21 10:51:58;;;;;;;16.08;11.98;;;20.40;82.50;;;;;;5049806;28;20080;-80
2023/04/21 10:54:25;;;;;;;14.32;12.13;;;20.20;78.50;;;;;;5046045;28;20040;-80
2023/04/21 10:56:57;;;;;;;14.27;11.13;;;20.60;82.00;;;;;;5073301;28;20073;-80
2023/04/21 10:59:25;;;;;;;17.83;12.13;;;21.00;77.90;;;;;;5073317;28;20040;-81
2023/04/21 11:01:51;;;;;;;13.38;10.70;;;21.10;75.50;;;;;;5062330;28;20385;-80
2023/04/21 11:04:18;;;;;;;13.20;10.82;;;21.50;74.60;;;;;;5060224;28;20066;-80
2023/04/21 11:07:03;;;;;;;13.25;10.57;;;21.60;72.30;;;;;;5060827;28;20028;-78
2023/04/21 11:09:29;;;;;;;16.33;11.20;;;21.50;69.40;;;;;;5069992;28;20047;-80
2023/04/21 11:12:06;;;;;;;16.80;11.20;;;21.60;70.40;;;;;;5061609;28;20413;-80
2023/04/21 11:14:32;;;;;;;14.05;11.65;;;21.30;69.50;;;;;;5075938;28;20046;-82
2023/04/21 11:17:04;;;;;;;14.07;11.40;;;20.50;69.80;;;;;;5063886;28;20118;-83
2023/04/21 11:19:32;;;;;;;15.15;10.43;;;20.90;70.70;;;;;;5058607;28;20040;-80
2023/04/21 11:21:58;;;;;;;11.57;10.38;;;21.10;71.30;;;;;;5088283;28;20044;-79
2023/04/21 11:24:24;;;;;;;12.15;10.23;;;21.80;71.80;;;;;;5077297;28;20074;-78
2023/04/21 11:26:50;;;;;;;11.07;9.68;;;21.70;66.70;;;;;;5069573;28;20039;-80
2023/04/21 11:29:16;;;;;;;11.05;9.88;;;21.80;65.10;;;;;;5076656;28;20169;-80
2023/04/21 11:31:44;;;;;;;13.45;10.23;;;21.70;64.60;;;;;;5082022;28;20115;-79
2023/04/21 11:34:11;;;;;;;10.57;9.52;;;21.90;63.20;;;;;;5059651;28;20396;-80
2023/04/21 11:36:39;;;;;;;15.88;9.85;;;21.60;63.70;;;;;;5069041;28;20047;-78
2023/04/21 11:39:09;;;;;;;10.88;9.73;;;21.50;63.60;;;;;;5052573;28;20071;-81
2023/04/21 11:41:39;;;;;;;12.85;10.18;;;21.60;62.90;;;;;;5071800;28;20036;-80
2023/04/21 11:44:05;;;;;;;13.70;10.52;;;21.60;63.50;;;;;;5059627;28;20040;-79
2023/04/21 11:46:35;;;;;;;14.90;9.88;;;22.00;63.00;;;;;;5071468;28;20048;-80
2023/04/21 11:49:06;;;;;;;12.68;10.27;;;22.70;64.10;;;;;;5087251;28;20055;-79
2023/04/21 11:51:40;;;;;;;11.88;9.68;;;23.10;62.60;;;;;;5076711;28;20045;-80
2023/04/21 11:54:08;;;;;;;12.20;9.13;;;24.10;60.40;;;;;;5089337;28;20041;-80
2023/04/21 11:56:35;;;;;;;11.55;8.95;;;23.80;59.40;;;;;;5063784;28;20115;-79
2023/04/21 11:59:06;;;;;;;10.07;8.95;;;23.80;59.40;;;;;;5073071;28;20064;-78
2023/04/21 12:01:32;;;;;;;10.07;8.82;;;23.50;58.00;;;;;;5067301;28;20047;-80
2023/04/21 12:03:57;;;;;;;12.25;8.90;;;22.40;58.70;;;;;;5054649;28;20374;-78
2023/04/21 12:06:30;;;;;;;9.77;8.80;;;22.30;59.40;;;;;;5064658;28;20041;-80
2023/04/21 12:09:04;;;;;;;15.50;8.52;;;21.60;59.30;;;;;;5062088;28;20097;-78
2023/04/21 12:11:31;;;;;;;12.77;9.15;;;21.20;59.60;;;;;;5068536;28;20033;-79
2023/04/21 12:13:58;;;;;;;11.73;8.80;;;21.00;60.50;;;;;;5058553;28;20043;-78
2023/04/21 12:16:28;;;;;;;13.15;8.10;;;21.20;61.50;;;;;;5068623;28;20043;-78
2023/04/21 12:18:55;;;;;;;10.15;8.82;;;20.70;61.20;;;;;;5080299;28;20095;-77
2023/04/21 12:21:21;;;;;;;10.13;8.40;;;20.80;61.80;;;;;;5063852;28;20051;-78
2023/04/21 12:23:46;;;;;;;10.45;8.00;;;20.70;62.00;;;;;;5050273;28;20052;-79
2023/04/21 12:26:12;;;;;;;12.80;8.27;;;20.80;61.50;;;;;;5054267;28;20036;-78
2023/04/21 12:28:38;;;;;;;10.90;7.70;;;20.80;61.80;;;;;;5075889;28;20067;-78
2023/04/21 12:31:05;;;;;;;12.13;8.25;;;20.80;62.40;;;;;;5054740;28;20484;-78